METAR K3S8 200355Z AUTO 00000KT 10SM 14/06 A3024


AIRPORT ID: 3S8

DATE(M/D/Y): 4/20/2018 3:55 Z 20:55 L


WIND DIRECT: 310

WIND SPEED: 0 KT

WIND CONDITIONS:

VISIBILTY: 10 SM 9999 M

TEMPERATURE: 57 F 14 C

DEW POINT: 43 F 6 C

ALTIMETER: A3024 Q1024

DENSITY ALT: 900 FT

HUMID: 59%

LCL: 1,000-3,000 FT


RADIO CHECK: 1

ADVISORIES: 1

GREETINGS: 0

CONVERSATIONS: 8